createdAt,value
2018-07-06T00:02:03.624Z,63.72
2018-07-06T00:07:18.343Z,64.56
2018-07-06T00:12:33.185Z,64.11
2018-07-06T00:17:48.102Z,64.44
2018-07-06T00:23:02.640Z,64.78
2018-07-06T00:28:17.607Z,64.46
2018-07-06T00:33:32.334Z,64.61
2018-07-06T00:38:47.321Z,64.65
2018-07-06T00:44:01.964Z,65.54
2018-07-06T00:49:16.902Z,64.97
2018-07-06T00:54:31.713Z,65.40
2018-07-06T00:59:46.823Z,65.76
2018-07-06T01:05:01.638Z,65.85
2018-07-06T01:10:17.318Z,66.53
2018-07-06T01:15:35.184Z,66.37
2018-07-06T01:20:49.817Z,65.71
2018-07-06T01:26:04.556Z,66.95
2018-07-06T01:31:19.325Z,67.37
2018-07-06T01:36:34.151Z,66.92
2018-07-06T01:41:49.229Z,66.44
2018-07-06T01:47:04.206Z,66.22
2018-07-06T01:52:18.826Z,65.89
2018-07-06T01:57:33.606Z,65.45
2018-07-06T02:02:52.301Z,65.50
2018-07-06T02:08:08.793Z,66.12
2018-07-06T02:13:23.457Z,65.33
2018-07-06T02:18:38.210Z,65.56
2018-07-06T02:23:52.993Z,65.56
2018-07-06T02:29:07.847Z,65.71
2018-07-06T02:34:23.372Z,65.78
2018-07-06T02:39:38.068Z,65.48
2018-07-06T02:44:53.024Z,65.37
2018-07-06T02:50:07.902Z,65.12
2018-07-06T02:55:22.640Z,65.18
2018-07-06T03:00:37.929Z,64.93
2018-07-06T03:05:52.727Z,65.62
2018-07-06T03:11:07.833Z,64.92
2018-07-06T03:16:22.913Z,65.28
2018-07-06T03:21:37.743Z,66.06
2018-07-06T03:26:53.244Z,65.50
2018-07-06T03:32:08.195Z,66.21
2018-07-06T03:37:22.840Z,66.05
2018-07-06T03:42:37.727Z,65.31
2018-07-06T03:47:52.563Z,66.17
2018-07-06T03:53:07.378Z,65.90
2018-07-06T03:58:22.233Z,66.45
2018-07-06T04:03:37.253Z,65.85
2018-07-06T04:08:52.067Z,65.90
2018-07-06T04:14:06.820Z,65.77
2018-07-06T04:19:21.617Z,64.88
2018-07-06T04:24:36.411Z,65.97
2018-07-06T04:29:51.217Z,65.67
2018-07-06T04:35:06.735Z,65.80
2018-07-06T04:40:21.555Z,65.37
2018-07-06T04:45:36.281Z,65.70
2018-07-06T04:50:50.990Z,66.03
2018-07-06T04:56:05.710Z,64.58
2018-07-06T05:01:20.722Z,64.61
2018-07-06T05:06:35.451Z,64.21
2018-07-06T05:11:50.177Z,64.19
2018-07-06T05:17:05.063Z,65.10
2018-07-06T05:22:19.925Z,65.09
2018-07-06T05:27:35.345Z,65.40
2018-07-06T05:32:50.082Z,65.42
2018-07-06T05:38:05.281Z,65.00
2018-07-06T05:43:20.178Z,65.01
2018-07-06T05:48:35.040Z,65.01
2018-07-06T05:53:49.814Z,64.49
2018-07-06T05:59:05.069Z,64.16
2018-07-06T06:04:20.777Z,65.29
2018-07-06T06:09:25.185Z,65.27
2018-07-06T06:14:29.187Z,64.87
2018-07-06T06:19:32.749Z,65.33
2018-07-06T06:24:36.256Z,66.15
2018-07-06T06:29:40.146Z,66.07
2018-07-06T06:34:43.868Z,64.96
2018-07-06T06:39:48.118Z,64.94
2018-07-06T06:44:51.816Z,64.83
2018-07-06T06:49:55.781Z,64.36
2018-07-06T06:54:59.797Z,64.57
2018-07-06T07:00:03.398Z,64.01
2018-07-06T07:05:07.583Z,64.21
2018-07-06T07:10:11.143Z,64.55
2018-07-06T07:15:14.632Z,63.56
2018-07-06T07:20:18.203Z,63.93
2018-07-06T07:25:21.809Z,62.93
2018-07-06T07:30:29.777Z,62.28
2018-07-06T07:35:33.357Z,61.40
2018-07-06T07:40:37.429Z,61.16
2018-07-06T07:45:41.037Z,60.61
2018-07-06T07:50:56.723Z,59.78
2018-07-06T07:56:00.474Z,59.78
2018-07-06T08:01:04.263Z,59.35
2018-07-06T08:06:07.642Z,58.38
2018-07-06T08:11:11.962Z,58.05
2018-07-06T08:16:15.512Z,58.49
2018-07-06T08:21:20.004Z,58.88
2018-07-06T08:26:23.505Z,59.05
2018-07-06T08:31:27.210Z,58.04
2018-07-06T08:37:44.229Z,57.38
2018-07-06T08:42:49.603Z,56.88
2018-07-06T08:47:53.269Z,55.53
2018-07-06T08:52:57.366Z,53.88
2018-07-06T08:58:01.723Z,53.92
2018-07-06T09:03:05.776Z,52.88
2018-07-06T09:08:09.541Z,54.02
2018-07-06T09:13:13.705Z,53.99
2018-07-06T09:18:17.393Z,54.24
2018-07-06T09:23:20.957Z,53.54
2018-07-06T09:28:25.511Z,54.04
2018-07-06T09:33:29.356Z,52.38
2018-07-06T09:38:32.866Z,50.50
2018-07-06T09:43:36.572Z,51.19
2018-07-06T09:48:40.590Z,49.97
2018-07-06T09:53:44.300Z,49.04
2018-07-06T09:58:47.854Z,48.17
2018-07-06T10:03:52.162Z,47.53
2018-07-06T10:08:56.537Z,47.74
2018-07-06T10:14:00.156Z,46.31
2018-07-06T10:19:03.690Z,46.27
2018-07-06T10:24:07.317Z,46.64
2018-07-06T10:30:26.813Z,48.30
2018-07-06T10:35:30.528Z,47.30
2018-07-06T10:40:34.137Z,44.84
2018-07-06T10:45:37.699Z,45.39
2018-07-06T10:50:41.259Z,46.56
2018-07-06T10:55:44.847Z,45.46
2018-07-06T11:00:48.333Z,41.99
2018-07-06T11:05:52.782Z,41.97
2018-07-06T11:10:56.469Z,41.70
2018-07-06T11:16:00.050Z,42.63
2018-07-06T11:21:04.412Z,42.68
2018-07-06T11:26:08.501Z,41.13
2018-07-06T11:31:12.008Z,41.21
2018-07-06T11:36:15.694Z,41.03
2018-07-06T11:41:19.212Z,41.35
2018-07-06T11:46:23.622Z,40.71
2018-07-06T11:51:27.262Z,40.20
2018-07-06T11:56:30.835Z,38.54
2018-07-06T12:01:34.386Z,38.63
2018-07-06T12:06:37.974Z,38.11
2018-07-06T12:11:41.496Z,37.72
2018-07-06T12:16:45.085Z,38.81
2018-07-06T12:21:49.323Z,37.57
2018-07-06T12:26:52.923Z,36.59
2018-07-06T12:31:56.439Z,37.12
2018-07-06T12:37:03.488Z,37.18
2018-07-06T12:42:06.996Z,37.33
2018-07-06T12:47:10.595Z,36.34
2018-07-06T12:52:14.328Z,37.01
2018-07-06T12:57:18.973Z,37.69
2018-07-06T13:02:22.592Z,36.59
2018-07-06T13:07:26.225Z,36.15
2018-07-06T13:12:29.805Z,36.04
2018-07-06T13:17:33.679Z,35.72
2018-07-06T13:22:37.427Z,34.79
2018-07-06T13:27:41.019Z,34.88
2018-07-06T13:32:44.606Z,33.83
2018-07-06T13:37:48.699Z,34.86
2018-07-06T13:42:52.201Z,34.24
2018-07-06T13:47:55.795Z,34.86
2018-07-06T13:52:59.356Z,35.01
2018-07-06T13:58:02.929Z,33.86
2018-07-06T14:03:06.577Z,33.86
2018-07-06T14:08:10.449Z,35.03
2018-07-06T14:13:14.230Z,33.31
2018-07-06T14:18:17.846Z,32.85
2018-07-06T14:23:22.202Z,32.75
2018-07-06T14:28:26.141Z,31.22
2018-07-06T14:33:29.652Z,30.89
2018-07-06T14:38:33.433Z,30.65
2018-07-06T14:43:36.932Z,30.50
2018-07-06T14:48:41.078Z,31.10
2018-07-06T14:53:44.599Z,30.19
2018-07-06T14:58:48.174Z,30.69
2018-07-06T15:03:51.772Z,30.34
2018-07-06T15:08:55.432Z,30.55
2018-07-06T15:13:58.944Z,30.48
2018-07-06T15:19:03.384Z,30.43
2018-07-06T15:24:08.006Z,30.59
2018-07-06T15:29:11.834Z,30.27
2018-07-06T15:34:15.326Z,31.01
2018-07-06T15:39:19.528Z,31.60
2018-07-06T15:44:23.040Z,30.82
2018-07-06T15:49:26.877Z,31.12
2018-07-06T15:54:30.960Z,31.25
2018-07-06T15:59:34.617Z,31.29
2018-07-06T16:04:39.595Z,31.30
2018-07-06T16:09:44.085Z,32.34
2018-07-06T16:14:47.645Z,32.39
2018-07-06T16:19:52.621Z,32.18
2018-07-06T16:24:58.318Z,32.69
2018-07-06T16:30:02.360Z,32.85
2018-07-06T16:35:06.005Z,32.97
2018-07-06T16:40:09.838Z,32.33
2018-07-06T16:45:13.498Z,30.92
2018-07-06T16:50:17.066Z,29.04
2018-07-06T16:55:21.140Z,29.06
2018-07-06T17:00:29.084Z,30.28
2018-07-06T17:05:32.704Z,30.64
2018-07-06T17:10:37.942Z,31.14
2018-07-06T17:15:41.691Z,30.36
2018-07-06T17:20:45.672Z,31.21
2018-07-06T17:25:49.162Z,31.23
2018-07-06T17:30:53.633Z,31.83
2018-07-06T17:35:57.208Z,31.72
2018-07-06T17:41:00.999Z,32.68
2018-07-06T17:46:05.282Z,32.96
2018-07-06T17:51:08.931Z,32.82
2018-07-06T17:56:12.709Z,32.97
2018-07-06T18:01:16.429Z,32.97
2018-07-06T18:06:20.061Z,32.80
2018-07-06T18:11:23.725Z,33.36
2018-07-06T18:16:27.292Z,33.52
2018-07-06T18:21:31.322Z,34.87
2018-07-06T18:26:34.849Z,33.58
2018-07-06T18:31:38.381Z,33.31
2018-07-06T18:36:41.954Z,33.27
2018-07-06T18:41:46.046Z,34.29
2018-07-06T18:46:49.939Z,34.22
2018-07-06T18:51:53.731Z,34.44
2018-07-06T18:56:57.421Z,33.78
2018-07-06T19:02:01.009Z,35.52
2018-07-06T19:07:04.567Z,34.57
2018-07-06T19:12:08.153Z,35.41
2018-07-06T19:17:12.211Z,36.03
2018-07-06T19:22:15.761Z,35.53
2018-07-06T19:27:19.467Z,35.02
2018-07-06T19:32:22.948Z,36.46
2018-07-06T19:37:27.470Z,36.74
2018-07-06T19:42:30.985Z,37.51
2018-07-06T19:47:34.501Z,36.81
2018-07-06T19:52:38.008Z,36.87
2018-07-06T19:57:41.661Z,37.58
2018-07-06T20:02:45.432Z,38.23
2018-07-06T20:07:49.149Z,38.20
2018-07-06T20:12:53.065Z,38.30
2018-07-06T20:17:56.728Z,39.06
2018-07-06T20:23:00.240Z,39.35
2018-07-06T20:28:03.905Z,39.88
2018-07-06T20:33:07.429Z,40.05
2018-07-06T20:38:11.061Z,39.58
2018-07-06T20:43:14.621Z,39.84
2018-07-06T20:48:19.104Z,40.44
2018-07-06T20:53:22.637Z,40.55
2018-07-06T20:58:26.232Z,40.72
2018-07-06T21:03:29.714Z,40.92
2018-07-06T21:08:33.282Z,38.99
2018-07-06T21:13:37.425Z,40.26
2018-07-06T21:18:41.064Z,39.72
2018-07-06T21:23:44.563Z,39.96
2018-07-06T21:28:48.451Z,39.26
2018-07-06T21:33:52.275Z,40.10
2018-07-06T21:38:56.629Z,38.96
2018-07-06T21:44:00.185Z,39.00
2018-07-06T21:49:04.045Z,39.49
2018-07-06T21:54:08.041Z,39.71
2018-07-06T21:59:11.619Z,39.44
2018-07-06T22:04:16.337Z,39.24
2018-07-06T22:09:19.962Z,40.54
2018-07-06T22:14:23.524Z,40.42
2018-07-06T22:19:27.419Z,40.29
2018-07-06T22:24:31.048Z,40.08
2018-07-06T22:29:34.620Z,40.43
2018-07-06T22:34:38.158Z,41.07
2018-07-06T22:39:41.743Z,40.50
2018-07-06T22:44:45.362Z,40.89
2018-07-06T22:49:49.061Z,41.02
2018-07-06T22:54:52.801Z,41.16
2018-07-06T22:59:56.547Z,41.55
2018-07-06T23:05:00.090Z,40.86
2018-07-06T23:10:05.088Z,41.35
2018-07-06T23:15:08.601Z,41.23
2018-07-06T23:20:12.788Z,42.12
2018-07-06T23:25:16.775Z,41.77
2018-07-06T23:30:30.441Z,40.94
2018-07-06T23:35:34.262Z,40.95
2018-07-06T23:40:37.844Z,41.41
2018-07-06T23:45:41.340Z,41.58
2018-07-06T23:50:45.041Z,42.47
2018-07-06T23:55:49.313Z,42.62
